AFR42PR EGNT-LFPG
Flight info
| Callsign | AFR42PR |
|---|---|
| Flight time | 1h 15m |
| Altitude | 37000 |
| Route | GIRLI P18 GASKO P16 RIBEL UP16 CROFT UL612 WOD UM605 BIBAX |
| Aircraft | E190/M-SDE3GILORVW/S |
Departure
| Time | 2026-05-08 10:29 |
|---|---|
| Airport | Newcastle International Airport (EGNT) |
Arrival
| Time | 2026-05-08 11:44 |
|---|---|
| Airport | Charles de Gaulle International Airport (LFPG) |
| Time | Latitude | Longitude | Altitude | Speed | Heading |
|---|---|---|---|---|---|
| 2026-05-08 09:52 | 55.03666 | -1.70779 | 266 ft | 0 kts | 2° |
| 2026-05-08 10:01 | 55.03665 | -1.70779 | 266 ft | 0 kts | 2° |
| 2026-05-08 10:18 | 55.03665 | -1.70780 | 266 ft | 0 kts | 2° |
| 2026-05-08 10:18 | 55.03665 | -1.70779 | 266 ft | 0 kts | 2° |
| 2026-05-08 10:18 | 55.03665 | -1.70780 | 266 ft | 0 kts | 2° |
| 2026-05-08 10:19 | 55.03660 | -1.70780 | 266 ft | 4 kts | 3° |
| 2026-05-08 10:19 | 55.03638 | -1.70783 | 266 ft | 3 kts | 6° |
| 2026-05-08 10:20 | 55.03599 | -1.70832 | 266 ft | 4 kts | 37° |
| 2026-05-08 10:20 | 55.03582 | -1.70845 | 266 ft | 4 kts | 6° |
| 2026-05-08 10:20 | 55.03572 | -1.70847 | 266 ft | 0 kts | 4° |
| 2026-05-08 10:23 | 55.03579 | -1.70845 | 266 ft | 3 kts | 9° |
| 2026-05-08 10:24 | 55.03596 | -1.70783 | 266 ft | 8 kts | 85° |
| 2026-05-08 10:24 | 55.03592 | -1.70667 | 266 ft | 11 kts | 95° |
| 2026-05-08 10:24 | 55.03595 | -1.70521 | 266 ft | 13 kts | 82° |
| 2026-05-08 10:24 | 55.03667 | -1.70437 | 266 ft | 14 kts | 3° |
| 2026-05-08 10:25 | 55.03770 | -1.70408 | 266 ft | 16 kts | 37° |
| 2026-05-08 10:25 | 55.03776 | -1.70211 | 263 ft | 19 kts | 94° |
| 2026-05-08 10:25 | 55.03775 | -1.69955 | 259 ft | 23 kts | 85° |
| 2026-05-08 10:25 | 55.03803 | -1.69672 | 256 ft | 25 kts | 76° |
| 2026-05-08 10:26 | 55.03868 | -1.69378 | 254 ft | 27 kts | 64° |
| 2026-05-08 10:26 | 55.03950 | -1.69067 | 251 ft | 29 kts | 65° |
| 2026-05-08 10:26 | 55.04037 | -1.68745 | 249 ft | 30 kts | 66° |
| 2026-05-08 10:26 | 55.04127 | -1.68401 | 247 ft | 31 kts | 66° |
| 2026-05-08 10:27 | 55.04220 | -1.68053 | 246 ft | 32 kts | 65° |
| 2026-05-08 10:27 | 55.04312 | -1.67705 | 243 ft | 29 kts | 64° |
| 2026-05-08 10:27 | 55.04325 | -1.67429 | 240 ft | 22 kts | 104° |
| 2026-05-08 10:27 | 55.04218 | -1.67392 | 241 ft | 14 kts | 228° |
| 2026-05-08 10:28 | 55.04193 | -1.67471 | 242 ft | 0 kts | 245° |
| 2026-05-08 10:28 | 55.04190 | -1.67480 | 242 ft | 5 kts | 245° |
| 2026-05-08 10:28 | 55.04078 | -1.67909 | 246 ft | 75 kts | 245° |
| 2026-05-08 10:28 | 55.03758 | -1.69114 | 255 ft | 141 kts | 245° |
| 2026-05-08 10:29 | 55.03307 | -1.70842 | 667 ft | 167 kts | 245° |
| 2026-05-08 10:29 | 55.02810 | -1.72766 | 1526 ft | 177 kts | 244° |
| 2026-05-08 10:29 | 55.02308 | -1.74694 | 2459 ft | 173 kts | 241° |
| 2026-05-08 10:29 | 55.01542 | -1.76449 | 2958 ft | 187 kts | 219° |
| 2026-05-08 10:30 | 55.00382 | -1.77535 | 3678 ft | 189 kts | 201° |
| 2026-05-08 10:30 | 54.99108 | -1.78349 | 4318 ft | 200 kts | 202° |
| 2026-05-08 10:30 | 54.97736 | -1.79232 | 4794 ft | 221 kts | 201° |
| 2026-05-08 10:30 | 54.96231 | -1.80157 | 5378 ft | 237 kts | 200° |
| 2026-05-08 10:31 | 54.94620 | -1.81122 | 5962 ft | 250 kts | 200° |
| 2026-05-08 10:31 | 54.92948 | -1.82108 | 6673 ft | 257 kts | 200° |
| 2026-05-08 10:31 | 54.91817 | -1.82770 | 7179 ft | 259 kts | 200° |
| 2026-05-08 10:31 | 54.89503 | -1.84108 | 8051 ft | 267 kts | 200° |
| 2026-05-08 10:32 | 54.87728 | -1.85121 | 8200 ft | 271 kts | 199° |
| 2026-05-08 10:32 | 54.85951 | -1.86112 | 8188 ft | 267 kts | 199° |
| 2026-05-08 10:32 | 54.84179 | -1.87099 | 8049 ft | 267 kts | 200° |
| 2026-05-08 10:32 | 54.82408 | -1.87946 | 8076 ft | 263 kts | 189° |
| 2026-05-08 10:33 | 54.80575 | -1.87727 | 8072 ft | 270 kts | 165° |
| 2026-05-08 10:33 | 54.78822 | -1.86501 | 8094 ft | 273 kts | 159° |
| 2026-05-08 10:33 | 54.77090 | -1.85127 | 8074 ft | 274 kts | 158° |
| 2026-05-08 10:33 | 54.75363 | -1.83743 | 8065 ft | 273 kts | 158° |
| 2026-05-08 10:34 | 54.73639 | -1.82372 | 8075 ft | 273 kts | 158° |
| 2026-05-08 10:34 | 54.71902 | -1.81067 | 8397 ft | 273 kts | 165° |
| 2026-05-08 10:34 | 54.70036 | -1.80763 | 9132 ft | 270 kts | 189° |
| 2026-05-08 10:34 | 54.68181 | -1.81283 | 9934 ft | 271 kts | 192° |
| 2026-05-08 10:35 | 54.66219 | -1.81870 | 10460 ft | 285 kts | 192° |
| 2026-05-08 10:35 | 54.64282 | -1.82470 | 10824 ft | 300 kts | 192° |
| 2026-05-08 10:35 | 54.62204 | -1.83123 | 11511 ft | 306 kts | 192° |
| 2026-05-08 10:35 | 54.60097 | -1.83784 | 12292 ft | 309 kts | 192° |
| 2026-05-08 10:36 | 54.57966 | -1.84459 | 13120 ft | 313 kts | 192° |
| 2026-05-08 10:36 | 54.55810 | -1.85154 | 13951 ft | 318 kts | 192° |
| 2026-05-08 10:36 | 54.53628 | -1.85866 | 14735 ft | 321 kts | 192° |
| 2026-05-08 10:36 | 54.51416 | -1.86573 | 15525 ft | 325 kts | 192° |
| 2026-05-08 10:37 | 54.49177 | -1.87278 | 16314 ft | 329 kts | 192° |
| 2026-05-08 10:37 | 54.46909 | -1.87994 | 17103 ft | 333 kts | 192° |
| 2026-05-08 10:37 | 54.44613 | -1.88719 | 17867 ft | 338 kts | 192° |
| 2026-05-08 10:37 | 54.42288 | -1.89452 | 18616 ft | 342 kts | 192° |
| 2026-05-08 10:38 | 54.39934 | -1.90191 | 19296 ft | 345 kts | 192° |
| 2026-05-08 10:38 | 54.37560 | -1.90931 | 19956 ft | 349 kts | 192° |
| 2026-05-08 10:38 | 54.35161 | -1.91680 | 20609 ft | 352 kts | 192° |
| 2026-05-08 10:38 | 54.32775 | -1.92423 | 21238 ft | 355 kts | 192° |
| 2026-05-08 10:39 | 54.30334 | -1.93182 | 21863 ft | 359 kts | 192° |
| 2026-05-08 10:39 | 54.27868 | -1.93948 | 22456 ft | 362 kts | 192° |
| 2026-05-08 10:39 | 54.25368 | -1.94724 | 23064 ft | 366 kts | 191° |
| 2026-05-08 10:39 | 54.22906 | -1.95866 | 23653 ft | 369 kts | 205° |
| 2026-05-08 10:40 | 54.20796 | -1.98335 | 24260 ft | 369 kts | 222° |
| 2026-05-08 10:40 | 54.18898 | -2.01323 | 24790 ft | 373 kts | 223° |
| 2026-05-08 10:40 | 54.16982 | -2.04348 | 25308 ft | 377 kts | 223° |
| 2026-05-08 10:40 | 54.15047 | -2.07412 | 25862 ft | 380 kts | 223° |
| 2026-05-08 10:41 | 54.13106 | -2.10495 | 26387 ft | 383 kts | 223° |
| 2026-05-08 10:41 | 54.11151 | -2.13617 | 26868 ft | 387 kts | 223° |
| 2026-05-08 10:41 | 54.09180 | -2.16770 | 27333 ft | 390 kts | 224° |
| 2026-05-08 10:41 | 54.07198 | -2.19944 | 27799 ft | 393 kts | 224° |
| 2026-05-08 10:42 | 54.05202 | -2.23146 | 28251 ft | 396 kts | 224° |
| 2026-05-08 10:42 | 54.03191 | -2.26375 | 28695 ft | 399 kts | 224° |
| 2026-05-08 10:42 | 54.00966 | -2.29215 | 29077 ft | 404 kts | 208° |
| 2026-05-08 10:42 | 53.98379 | -2.31077 | 29622 ft | 404 kts | 202° |
| 2026-05-08 10:43 | 53.95749 | -2.32795 | 30081 ft | 406 kts | 202° |
| 2026-05-08 10:43 | 53.93095 | -2.34510 | 30373 ft | 410 kts | 202° |
| 2026-05-08 10:43 | 53.90420 | -2.36239 | 30737 ft | 412 kts | 202° |
| 2026-05-08 10:43 | 53.87736 | -2.37978 | 31005 ft | 415 kts | 202° |
| 2026-05-08 10:44 | 53.85032 | -2.39728 | 31347 ft | 416 kts | 202° |
| 2026-05-08 10:44 | 53.82326 | -2.41476 | 31608 ft | 419 kts | 202° |
| 2026-05-08 10:44 | 53.79595 | -2.43236 | 31895 ft | 420 kts | 202° |
| 2026-05-08 10:44 | 53.76866 | -2.44994 | 32278 ft | 419 kts | 202° |
| 2026-05-08 10:45 | 53.74144 | -2.46742 | 32676 ft | 417 kts | 202° |
| 2026-05-08 10:45 | 53.71435 | -2.48480 | 33078 ft | 416 kts | 201° |
| 2026-05-08 10:45 | 53.68733 | -2.50210 | 33450 ft | 415 kts | 201° |
| 2026-05-08 10:45 | 53.66030 | -2.51910 | 33782 ft | 415 kts | 198° |
| 2026-05-08 10:46 | 53.63261 | -2.52785 | 34071 ft | 417 kts | 182° |
| 2026-05-08 10:46 | 53.60382 | -2.52216 | 34373 ft | 419 kts | 165° |
| 2026-05-08 10:46 | 53.57649 | -2.50506 | 34698 ft | 419 kts | 159° |
| 2026-05-08 10:46 | 53.54949 | -2.48606 | 34945 ft | 421 kts | 158° |
| 2026-05-08 10:47 | 53.52255 | -2.46667 | 35192 ft | 422 kts | 158° |
| 2026-05-08 10:47 | 53.49560 | -2.44717 | 35487 ft | 421 kts | 158° |
| 2026-05-08 10:47 | 53.46844 | -2.42743 | 35761 ft | 422 kts | 158° |
| 2026-05-08 10:47 | 53.44171 | -2.40817 | 36007 ft | 422 kts | 158° |
| 2026-05-08 10:48 | 53.41457 | -2.38902 | 36247 ft | 423 kts | 159° |
| 2026-05-08 10:48 | 53.38754 | -2.36999 | 36502 ft | 423 kts | 159° |
| 2026-05-08 10:48 | 53.36041 | -2.35092 | 36753 ft | 423 kts | 159° |
| 2026-05-08 10:48 | 53.33328 | -2.33187 | 36978 ft | 423 kts | 159° |
| 2026-05-08 10:49 | 53.30637 | -2.31297 | 37240 ft | 420 kts | 159° |
| 2026-05-08 10:49 | 53.25197 | -2.27481 | 37172 ft | 426 kts | 159° |
| 2026-05-08 10:50 | 53.19731 | -2.23669 | 37104 ft | 425 kts | 159° |
| 2026-05-08 10:50 | 53.14264 | -2.19873 | 37092 ft | 425 kts | 159° |
| 2026-05-08 10:51 | 53.08768 | -2.16066 | 37092 ft | 426 kts | 158° |
| 2026-05-08 10:51 | 53.03336 | -2.12311 | 37093 ft | 425 kts | 158° |
| 2026-05-08 10:52 | 52.97870 | -2.08546 | 37091 ft | 425 kts | 158° |
| 2026-05-08 10:52 | 52.92410 | -2.04791 | 37094 ft | 425 kts | 158° |
| 2026-05-08 10:53 | 52.86948 | -2.01046 | 37092 ft | 425 kts | 158° |
| 2026-05-08 10:53 | 52.82406 | -1.97942 | 37088 ft | 424 kts | 158° |
| 2026-05-08 10:54 | 52.77000 | -1.94254 | 37088 ft | 425 kts | 158° |
| 2026-05-08 10:54 | 52.71541 | -1.90543 | 37086 ft | 424 kts | 158° |
| 2026-05-08 10:55 | 52.66081 | -1.86839 | 37093 ft | 424 kts | 158° |
| 2026-05-08 10:55 | 52.60626 | -1.83148 | 37100 ft | 424 kts | 158° |
| 2026-05-08 10:56 | 52.55167 | -1.79464 | 37103 ft | 424 kts | 158° |
| 2026-05-08 10:56 | 52.49708 | -1.75791 | 37103 ft | 424 kts | 158° |
| 2026-05-08 10:57 | 52.44251 | -1.72128 | 37104 ft | 424 kts | 158° |
| 2026-05-08 10:57 | 52.36065 | -1.66654 | 37102 ft | 423 kts | 158° |
| 2026-05-08 10:58 | 52.30740 | -1.62538 | 37084 ft | 424 kts | 152° |
| 2026-05-08 10:58 | 52.25501 | -1.58121 | 37099 ft | 423 kts | 153° |
| 2026-05-08 10:59 | 52.20236 | -1.53798 | 37106 ft | 424 kts | 153° |
| 2026-05-08 10:59 | 52.14965 | -1.49508 | 37103 ft | 424 kts | 154° |
| 2026-05-08 11:00 | 52.09690 | -1.45233 | 37104 ft | 424 kts | 154° |
| 2026-05-08 11:00 | 52.04412 | -1.40952 | 37099 ft | 424 kts | 153° |
| 2026-05-08 11:01 | 51.99154 | -1.36614 | 37078 ft | 424 kts | 153° |
| 2026-05-08 11:01 | 51.93880 | -1.32315 | 37079 ft | 424 kts | 154° |
| 2026-05-08 11:02 | 51.85942 | -1.25937 | 37074 ft | 425 kts | 154° |
| 2026-05-08 11:03 | 51.80649 | -1.21694 | 37078 ft | 425 kts | 154° |
| 2026-05-08 11:03 | 51.75350 | -1.17452 | 37073 ft | 424 kts | 154° |
| 2026-05-08 11:04 | 51.70049 | -1.13223 | 37078 ft | 426 kts | 154° |
| 2026-05-08 11:04 | 51.64727 | -1.08987 | 37077 ft | 427 kts | 154° |
| 2026-05-08 11:05 | 51.59579 | -1.04246 | 37098 ft | 428 kts | 146° |
| 2026-05-08 11:05 | 51.54751 | -0.98738 | 37073 ft | 428 kts | 145° |
| 2026-05-08 11:06 | 51.49901 | -0.93196 | 37074 ft | 428 kts | 145° |
| 2026-05-08 11:06 | 51.45074 | -0.87586 | 37100 ft | 429 kts | 140° |
| 2026-05-08 11:07 | 51.40627 | -0.81175 | 37104 ft | 430 kts | 138° |
| 2026-05-08 11:07 | 51.36228 | -0.74673 | 37098 ft | 430 kts | 138° |
| 2026-05-08 11:08 | 51.31812 | -0.68202 | 37102 ft | 431 kts | 138° |
| 2026-05-08 11:08 | 51.27388 | -0.61742 | 37096 ft | 432 kts | 139° |
| 2026-05-08 11:09 | 51.22950 | -0.55283 | 37098 ft | 432 kts | 139° |
| 2026-05-08 11:09 | 51.18506 | -0.48834 | 37077 ft | 432 kts | 139° |
| 2026-05-08 11:10 | 51.14055 | -0.42391 | 37078 ft | 433 kts | 139° |
| 2026-05-08 11:10 | 51.09595 | -0.35954 | 37079 ft | 433 kts | 139° |
| 2026-05-08 11:11 | 51.05123 | -0.29516 | 37092 ft | 433 kts | 139° |
| 2026-05-08 11:11 | 51.00649 | -0.23093 | 37079 ft | 434 kts | 139° |
| 2026-05-08 11:12 | 50.96166 | -0.16676 | 37082 ft | 434 kts | 139° |
| 2026-05-08 11:12 | 50.91679 | -0.10269 | 37081 ft | 435 kts | 139° |
| 2026-05-08 11:13 | 50.87184 | -0.03866 | 37083 ft | 434 kts | 139° |
| 2026-05-08 11:13 | 50.82681 | 0.02526 | 37086 ft | 435 kts | 139° |
| 2026-05-08 11:14 | 50.78173 | 0.08910 | 37088 ft | 435 kts | 140° |
| 2026-05-08 11:14 | 50.73621 | 0.15213 | 37092 ft | 435 kts | 142° |
| 2026-05-08 11:15 | 50.68952 | 0.21205 | 37089 ft | 435 kts | 142° |
| 2026-05-08 11:15 | 50.64267 | 0.27261 | 37095 ft | 436 kts | 142° |
| 2026-05-08 11:16 | 50.59585 | 0.33325 | 37094 ft | 436 kts | 142° |
| 2026-05-08 11:16 | 50.54872 | 0.39341 | 37091 ft | 436 kts | 143° |
| 2026-05-08 11:17 | 50.50133 | 0.45307 | 37097 ft | 436 kts | 143° |
| 2026-05-08 11:17 | 50.45393 | 0.51270 | 37092 ft | 437 kts | 143° |
| 2026-05-08 11:18 | 50.40758 | 0.57118 | 36660 ft | 443 kts | 143° |
| 2026-05-08 11:18 | 50.38305 | 0.60203 | 35323 ft | 458 kts | 143° |
| 2026-05-08 11:18 | 50.35795 | 0.63358 | 34044 ft | 468 kts | 142° |
| 2026-05-08 11:18 | 50.33237 | 0.66571 | 32574 ft | 475 kts | 142° |
| 2026-05-08 11:19 | 50.30642 | 0.69825 | 31120 ft | 481 kts | 142° |
| 2026-05-08 11:19 | 50.28017 | 0.73112 | 29571 ft | 486 kts | 142° |
| 2026-05-08 11:19 | 50.25383 | 0.76409 | 28712 ft | 476 kts | 142° |
| 2026-05-08 11:19 | 50.22843 | 0.79582 | 28020 ft | 461 kts | 142° |
| 2026-05-08 11:20 | 50.20379 | 0.82656 | 27466 ft | 446 kts | 142° |
| 2026-05-08 11:20 | 50.17990 | 0.85631 | 26894 ft | 433 kts | 143° |
| 2026-05-08 11:20 | 50.15660 | 0.88526 | 26322 ft | 422 kts | 143° |
| 2026-05-08 11:20 | 50.13392 | 0.91343 | 25762 ft | 412 kts | 143° |
| 2026-05-08 11:21 | 50.11174 | 0.94092 | 25225 ft | 403 kts | 143° |
| 2026-05-08 11:21 | 50.09004 | 0.96780 | 24700 ft | 394 kts | 143° |
| 2026-05-08 11:21 | 50.06880 | 0.99408 | 24203 ft | 386 kts | 143° |
| 2026-05-08 11:21 | 50.04700 | 1.01734 | 23766 ft | 375 kts | 153° |
| 2026-05-08 11:22 | 50.02377 | 1.03448 | 23304 ft | 366 kts | 156° |
| 2026-05-08 11:22 | 50.00095 | 1.05121 | 22933 ft | 360 kts | 156° |
| 2026-05-08 11:22 | 49.97828 | 1.06793 | 22541 ft | 361 kts | 156° |
| 2026-05-08 11:22 | 49.95527 | 1.08501 | 22141 ft | 363 kts | 156° |
| 2026-05-08 11:23 | 49.93249 | 1.10198 | 21722 ft | 363 kts | 156° |
| 2026-05-08 11:23 | 49.90973 | 1.11894 | 21327 ft | 362 kts | 156° |
| 2026-05-08 11:23 | 49.88708 | 1.13588 | 20908 ft | 361 kts | 156° |
| 2026-05-08 11:23 | 49.86454 | 1.15267 | 20516 ft | 358 kts | 156° |
| 2026-05-08 11:24 | 49.84218 | 1.16946 | 20130 ft | 356 kts | 155° |
| 2026-05-08 11:24 | 49.81995 | 1.18622 | 19729 ft | 354 kts | 155° |
| 2026-05-08 11:24 | 49.79785 | 1.20278 | 19346 ft | 352 kts | 155° |
| 2026-05-08 11:24 | 49.77585 | 1.21922 | 18961 ft | 350 kts | 155° |
| 2026-05-08 11:25 | 49.75397 | 1.23555 | 18577 ft | 348 kts | 156° |
| 2026-05-08 11:25 | 49.73221 | 1.25177 | 18172 ft | 346 kts | 156° |
| 2026-05-08 11:25 | 49.71068 | 1.26778 | 17825 ft | 343 kts | 156° |
| 2026-05-08 11:25 | 49.68919 | 1.28376 | 17438 ft | 342 kts | 155° |
| 2026-05-08 11:26 | 49.66780 | 1.29964 | 17072 ft | 341 kts | 156° |
| 2026-05-08 11:26 | 49.64645 | 1.31549 | 16685 ft | 339 kts | 155° |
| 2026-05-08 11:26 | 49.62527 | 1.33119 | 16326 ft | 337 kts | 155° |
| 2026-05-08 11:26 | 49.60420 | 1.34683 | 15965 ft | 335 kts | 155° |
| 2026-05-08 11:27 | 49.58317 | 1.36234 | 15575 ft | 334 kts | 155° |
| 2026-05-08 11:27 | 49.56225 | 1.37769 | 15215 ft | 332 kts | 155° |
| 2026-05-08 11:27 | 49.54147 | 1.39305 | 14856 ft | 330 kts | 155° |
| 2026-05-08 11:27 | 49.52085 | 1.40826 | 14508 ft | 326 kts | 155° |
| 2026-05-08 11:28 | 49.50065 | 1.42320 | 14132 ft | 319 kts | 155° |
| 2026-05-08 11:28 | 49.48085 | 1.43776 | 13781 ft | 312 kts | 155° |
| 2026-05-08 11:28 | 49.46151 | 1.45205 | 13463 ft | 305 kts | 155° |
| 2026-05-08 11:28 | 49.44253 | 1.46595 | 13125 ft | 300 kts | 155° |
| 2026-05-08 11:29 | 49.42378 | 1.47969 | 12832 ft | 297 kts | 155° |
| 2026-05-08 11:29 | 49.40510 | 1.49340 | 12479 ft | 297 kts | 155° |
| 2026-05-08 11:29 | 49.38653 | 1.50697 | 12190 ft | 295 kts | 155° |
| 2026-05-08 11:29 | 49.36796 | 1.52053 | 11828 ft | 295 kts | 155° |
| 2026-05-08 11:30 | 49.34973 | 1.53461 | 11565 ft | 293 kts | 150° |
| 2026-05-08 11:30 | 49.33286 | 1.55265 | 11281 ft | 292 kts | 140° |
| 2026-05-08 11:30 | 49.31854 | 1.57405 | 11034 ft | 291 kts | 131° |
| 2026-05-08 11:30 | 49.30755 | 1.60058 | 10778 ft | 290 kts | 111° |
| 2026-05-08 11:31 | 49.30160 | 1.62981 | 10560 ft | 289 kts | 105° |
| 2026-05-08 11:31 | 49.29647 | 1.65958 | 10328 ft | 289 kts | 105° |
| 2026-05-08 11:31 | 49.29130 | 1.68922 | 10074 ft | 288 kts | 105° |
| 2026-05-08 11:31 | 49.28521 | 1.71827 | 9809 ft | 286 kts | 112° |
| 2026-05-08 11:32 | 49.27569 | 1.74493 | 9534 ft | 285 kts | 125° |
| 2026-05-08 11:32 | 49.26237 | 1.76724 | 9261 ft | 284 kts | 140° |
| 2026-05-08 11:32 | 49.24605 | 1.78422 | 9005 ft | 284 kts | 149° |
| 2026-05-08 11:32 | 49.22881 | 1.79808 | 8745 ft | 284 kts | 154° |
| 2026-05-08 11:33 | 49.21072 | 1.81098 | 8492 ft | 283 kts | 155° |
| 2026-05-08 11:33 | 49.19284 | 1.82338 | 8238 ft | 282 kts | 155° |
| 2026-05-08 11:33 | 49.18098 | 1.83152 | 8074 ft | 282 kts | 155° |
| 2026-05-08 11:33 | 49.16450 | 1.84688 | 7786 ft | 275 kts | 140° |
| 2026-05-08 11:34 | 49.15077 | 1.86654 | 7538 ft | 268 kts | 136° |
| 2026-05-08 11:34 | 49.13742 | 1.88597 | 7279 ft | 262 kts | 134° |
| 2026-05-08 11:34 | 49.12472 | 1.90544 | 7052 ft | 256 kts | 134° |
| 2026-05-08 11:34 | 49.11244 | 1.92414 | 6930 ft | 246 kts | 134° |
| 2026-05-08 11:35 | 49.10022 | 1.94266 | 6615 ft | 247 kts | 134° |
| 2026-05-08 11:35 | 49.08799 | 1.96115 | 6374 ft | 244 kts | 134° |
| 2026-05-08 11:35 | 49.07602 | 1.97941 | 6120 ft | 240 kts | 134° |
| 2026-05-08 11:35 | 49.06425 | 1.99719 | 5833 ft | 238 kts | 135° |
| 2026-05-08 11:36 | 49.05254 | 2.01481 | 5582 ft | 236 kts | 135° |
| 2026-05-08 11:36 | 49.04079 | 2.03247 | 5332 ft | 234 kts | 135° |
| 2026-05-08 11:36 | 49.02916 | 2.04982 | 5099 ft | 232 kts | 134° |
| 2026-05-08 11:36 | 49.01794 | 2.06666 | 5078 ft | 221 kts | 135° |
| 2026-05-08 11:37 | 49.00699 | 2.08302 | 5077 ft | 220 kts | 135° |
| 2026-05-08 11:37 | 48.99604 | 2.09954 | 5078 ft | 223 kts | 134° |
| 2026-05-08 11:37 | 48.98466 | 2.11671 | 5112 ft | 236 kts | 134° |
| 2026-05-08 11:37 | 48.97643 | 2.13705 | 5132 ft | 226 kts | 107° |
| 2026-05-08 11:38 | 48.97245 | 2.15975 | 5179 ft | 203 kts | 105° |
| 2026-05-08 11:38 | 48.97121 | 2.17977 | 5161 ft | 190 kts | 85° |
| 2026-05-08 11:38 | 48.97302 | 2.20005 | 5047 ft | 192 kts | 83° |
| 2026-05-08 11:38 | 48.97398 | 2.22014 | 4914 ft | 193 kts | 87° |
| 2026-05-08 11:39 | 48.97479 | 2.24032 | 4622 ft | 192 kts | 85° |
| 2026-05-08 11:39 | 48.97607 | 2.26045 | 4344 ft | 187 kts | 84° |
| 2026-05-08 11:39 | 48.97722 | 2.28001 | 4079 ft | 184 kts | 85° |
| 2026-05-08 11:39 | 48.97824 | 2.29932 | 3830 ft | 182 kts | 85° |
| 2026-05-08 11:40 | 48.97933 | 2.31846 | 3588 ft | 181 kts | 85° |
| 2026-05-08 11:40 | 48.98040 | 2.33753 | 3343 ft | 180 kts | 85° |
| 2026-05-08 11:40 | 48.98146 | 2.35653 | 3099 ft | 180 kts | 85° |
| 2026-05-08 11:40 | 48.98250 | 2.37537 | 2851 ft | 178 kts | 85° |
| 2026-05-08 11:41 | 48.98356 | 2.39419 | 2619 ft | 178 kts | 84° |
| 2026-05-08 11:41 | 48.98454 | 2.41215 | 2380 ft | 163 kts | 85° |
| 2026-05-08 11:41 | 48.98542 | 2.42821 | 2169 ft | 151 kts | 84° |
| 2026-05-08 11:41 | 48.98627 | 2.44352 | 1949 ft | 142 kts | 85° |
| 2026-05-08 11:42 | 48.98709 | 2.45821 | 1770 ft | 133 kts | 85° |
| 2026-05-08 11:42 | 48.98784 | 2.47196 | 1574 ft | 127 kts | 85° |
| 2026-05-08 11:42 | 48.98861 | 2.48512 | 1415 ft | 125 kts | 84° |
| 2026-05-08 11:42 | 48.98926 | 2.49845 | 1261 ft | 128 kts | 86° |
| 2026-05-08 11:43 | 48.98997 | 2.51223 | 1087 ft | 131 kts | 84° |
| 2026-05-08 11:43 | 48.99081 | 2.52616 | 893 ft | 134 kts | 83° |
| 2026-05-08 11:43 | 48.99162 | 2.54011 | 721 ft | 132 kts | 84° |
| 2026-05-08 11:43 | 48.99234 | 2.55426 | 543 ft | 134 kts | 84° |
| 2026-05-08 11:44 | 48.99311 | 2.56849 | 374 ft | 135 kts | 83° |
| 2026-05-08 11:44 | 48.99389 | 2.58191 | 331 ft | 113 kts | 86° |
| 2026-05-08 11:44 | 48.99432 | 2.59146 | 322 ft | 73 kts | 86° |
| 2026-05-08 11:44 | 48.99462 | 2.59704 | 321 ft | 30 kts | 85° |
| 2026-05-08 11:45 | 48.99547 | 2.59964 | 324 ft | 27 kts | 37° |
| 2026-05-08 11:45 | 48.99720 | 2.59976 | 325 ft | 25 kts | 358° |
| 2026-05-08 11:45 | 48.99894 | 2.59989 | 323 ft | 25 kts | 32° |
| 2026-05-08 11:45 | 49.00011 | 2.60036 | 324 ft | 18 kts | 297° |
| 2026-05-08 11:46 | 49.00009 | 2.59850 | 325 ft | 18 kts | 265° |
| 2026-05-08 11:46 | 49.00002 | 2.59661 | 324 ft | 12 kts | 281° |
| 2026-05-08 11:46 | 49.00060 | 2.59650 | 326 ft | 7 kts | 3° |
| 2026-05-08 11:46 | 49.00089 | 2.59646 | 328 ft | 3 kts | 355° |
| 2026-05-08 11:47 | 49.00119 | 2.59643 | 330 ft | 6 kts | 355° |
| 2026-05-08 11:47 | 49.00177 | 2.59636 | 332 ft | 10 kts | 355° |
| 2026-05-08 11:47 | 49.00257 | 2.59630 | 332 ft | 11 kts | 13° |
| 2026-05-08 11:47 | 49.00282 | 2.59745 | 332 ft | 13 kts | 86° |
| 2026-05-08 11:48 | 49.00290 | 2.59896 | 330 ft | 16 kts | 85° |
| 2026-05-08 11:48 | 49.00300 | 2.60072 | 332 ft | 18 kts | 86° |
| 2026-05-08 11:48 | 49.00323 | 2.60211 | 330 ft | 10 kts | 26° |
| 2026-05-08 11:48 | 49.00398 | 2.60207 | 331 ft | 12 kts | 354° |
| 2026-05-08 11:49 | 49.00457 | 2.60236 | 332 ft | 8 kts | 75° |
| 2026-05-08 11:49 | 49.00459 | 2.60279 | 333 ft | 3 kts | 85° |
| 2026-05-08 11:49 | 49.00459 | 2.60280 | 333 ft | 0 kts | 85° |
| 2026-05-08 11:52 | 49.00459 | 2.60279 | 333 ft | 0 kts | 85° |